sensor_id;sensor_type;location;lat;lon;timestamp;temperature;humidity
51811;DHT22;52468;40.116;18.296;2024-01-30T00:00:48;7.40;54.80
51811;DHT22;52468;40.116;18.296;2024-01-30T00:03:16;7.40;54.80
51811;DHT22;52468;40.116;18.296;2024-01-30T00:05:44;7.30;55.00
51811;DHT22;52468;40.116;18.296;2024-01-30T00:08:12;7.20;55.10
51811;DHT22;52468;40.116;18.296;2024-01-30T00:10:40;7.20;55.20
51811;DHT22;52468;40.116;18.296;2024-01-30T00:13:08;7.10;55.60
51811;DHT22;52468;40.116;18.296;2024-01-30T00:15:36;7.00;56.00
51811;DHT22;52468;40.116;18.296;2024-01-30T00:18:04;6.90;56.00
51811;DHT22;52468;40.116;18.296;2024-01-30T00:20:32;6.90;56.30
51811;DHT22;52468;40.116;18.296;2024-01-30T00:22:59;6.80;56.30
51811;DHT22;52468;40.116;18.296;2024-01-30T00:25:28;6.80;56.10
51811;DHT22;52468;40.116;18.296;2024-01-30T00:27:56;6.80;56.00
51811;DHT22;52468;40.116;18.296;2024-01-30T00:30:24;6.80;55.90
51811;DHT22;52468;40.116;18.296;2024-01-30T00:32:52;6.80;55.90
51811;DHT22;52468;40.116;18.296;2024-01-30T00:35:20;6.80;55.80
51811;DHT22;52468;40.116;18.296;2024-01-30T00:37:49;6.80;55.80
51811;DHT22;52468;40.116;18.296;2024-01-30T00:40:17;6.80;55.60
51811;DHT22;52468;40.116;18.296;2024-01-30T00:42:45;6.80;55.40
51811;DHT22;52468;40.116;18.296;2024-01-30T00:45:16;6.80;55.40
51811;DHT22;52468;40.116;18.296;2024-01-30T00:47:44;6.80;55.30
51811;DHT22;52468;40.116;18.296;2024-01-30T00:50:12;6.70;55.40
51811;DHT22;52468;40.116;18.296;2024-01-30T00:52:40;6.70;55.60
51811;DHT22;52468;40.116;18.296;2024-01-30T00:55:09;6.60;55.70
51811;DHT22;52468;40.116;18.296;2024-01-30T00:57:37;6.60;55.80
51811;DHT22;52468;40.116;18.296;2024-01-30T01:00:05;6.50;56.00
51811;DHT22;52468;40.116;18.296;2024-01-30T01:02:36;6.50;56.20
51811;DHT22;52468;40.116;18.296;2024-01-30T01:05:03;6.50;56.20
51811;DHT22;52468;40.116;18.296;2024-01-30T01:07:32;6.40;56.40
51811;DHT22;52468;40.116;18.296;2024-01-30T01:10:00;6.40;56.50
51811;DHT22;52468;40.116;18.296;2024-01-30T01:12:28;6.30;56.60
51811;DHT22;52468;40.116;18.296;2024-01-30T01:14:56;6.30;56.70
51811;DHT22;52468;40.116;18.296;2024-01-30T01:17:24;6.30;56.70
51811;DHT22;52468;40.116;18.296;2024-01-30T01:19:52;6.20;56.80
51811;DHT22;52468;40.116;18.296;2024-01-30T01:22:20;6.20;56.90
51811;DHT22;52468;40.116;18.296;2024-01-30T01:24:47;6.20;56.90
51811;DHT22;52468;40.116;18.296;2024-01-30T01:27:15;6.20;56.90
51811;DHT22;52468;40.116;18.296;2024-01-30T01:29:43;6.30;56.80
51811;DHT22;52468;40.116;18.296;2024-01-30T01:32:11;6.30;56.70
51811;DHT22;52468;40.116;18.296;2024-01-30T01:34:39;6.40;56.70
51811;DHT22;52468;40.116;18.296;2024-01-30T01:37:07;6.40;56.50
51811;DHT22;52468;40.116;18.296;2024-01-30T01:39:35;6.40;56.50
51811;DHT22;52468;40.116;18.296;2024-01-30T01:42:03;6.40;56.40
51811;DHT22;52468;40.116;18.296;2024-01-30T01:44:31;6.50;56.40
51811;DHT22;52468;40.116;18.296;2024-01-30T01:46:59;6.50;56.30
51811;DHT22;52468;40.116;18.296;2024-01-30T01:49:27;6.40;56.30
51811;DHT22;52468;40.116;18.296;2024-01-30T01:51:57;6.40;56.20
51811;DHT22;52468;40.116;18.296;2024-01-30T01:54:26;6.40;56.30
51811;DHT22;52468;40.116;18.296;2024-01-30T01:56:56;6.40;56.20
51811;DHT22;52468;40.116;18.296;2024-01-30T01:59:24;6.40;56.10
51811;DHT22;52468;40.116;18.296;2024-01-30T02:01:54;6.50;56.00
51811;DHT22;52468;40.116;18.296;2024-01-30T02:04:23;6.50;55.90
51811;DHT22;52468;40.116;18.296;2024-01-30T02:06:51;6.50;55.70
51811;DHT22;52468;40.116;18.296;2024-01-30T02:09:19;6.60;55.60
51811;DHT22;52468;40.116;18.296;2024-01-30T02:11:47;6.60;55.50
51811;DHT22;52468;40.116;18.296;2024-01-30T02:14:15;6.60;55.60
51811;DHT22;52468;40.116;18.296;2024-01-30T02:16:43;6.60;55.50
51811;DHT22;52468;40.116;18.296;2024-01-30T02:19:11;6.60;55.60
51811;DHT22;52468;40.116;18.296;2024-01-30T02:21:39;6.60;55.70
51811;DHT22;52468;40.116;18.296;2024-01-30T02:24:07;6.50;55.90
51811;DHT22;52468;40.116;18.296;2024-01-30T02:26:35;6.50;56.00
51811;DHT22;52468;40.116;18.296;2024-01-30T02:29:02;6.50;56.10
51811;DHT22;52468;40.116;18.296;2024-01-30T02:31:30;6.40;56.30
51811;DHT22;52468;40.116;18.296;2024-01-30T02:33:58;6.40;56.60
51811;DHT22;52468;40.116;18.296;2024-01-30T02:36:26;6.30;56.80
51811;DHT22;52468;40.116;18.296;2024-01-30T02:38:54;6.20;57.10
51811;DHT22;52468;40.116;18.296;2024-01-30T02:41:22;6.00;57.40
51811;DHT22;52468;40.116;18.296;2024-01-30T02:43:50;5.90;57.80
51811;DHT22;52468;40.116;18.296;2024-01-30T02:46:17;5.90;58.10
51811;DHT22;52468;40.116;18.296;2024-01-30T02:48:45;5.80;58.40
51811;DHT22;52468;40.116;18.296;2024-01-30T02:51:13;5.80;58.50
51811;DHT22;52468;40.116;18.296;2024-01-30T02:53:41;5.80;58.50
51811;DHT22;52468;40.116;18.296;2024-01-30T02:56:09;5.80;58.50
51811;DHT22;52468;40.116;18.296;2024-01-30T02:58:37;5.80;58.50
51811;DHT22;52468;40.116;18.296;2024-01-30T03:01:08;5.70;58.60
51811;DHT22;52468;40.116;18.296;2024-01-30T03:03:36;5.80;58.50
51811;DHT22;52468;40.116;18.296;2024-01-30T03:06:05;5.80;58.40
51811;DHT22;52468;40.116;18.296;2024-01-30T03:08:33;5.70;58.40
51811;DHT22;52468;40.116;18.296;2024-01-30T03:11:02;5.70;58.40
51811;DHT22;52468;40.116;18.296;2024-01-30T03:13:30;5.60;58.50
51811;DHT22;52468;40.116;18.296;2024-01-30T03:15:58;5.60;58.50
51811;DHT22;52468;40.116;18.296;2024-01-30T03:18:26;5.60;58.60
51811;DHT22;52468;40.116;18.296;2024-01-30T03:20:54;5.50;58.70
51811;DHT22;52468;40.116;18.296;2024-01-30T03:23:22;5.50;58.80
51811;DHT22;52468;40.116;18.296;2024-01-30T03:25:50;5.50;59.10
51811;DHT22;52468;40.116;18.296;2024-01-30T03:28:18;5.50;59.20
51811;DHT22;52468;40.116;18.296;2024-01-30T03:30:46;5.50;59.20
51811;DHT22;52468;40.116;18.296;2024-01-30T03:33:13;5.60;59.20
51811;DHT22;52468;40.116;18.296;2024-01-30T03:35:41;5.70;59.00
51811;DHT22;52468;40.116;18.296;2024-01-30T03:38:10;5.70;58.80
51811;DHT22;52468;40.116;18.296;2024-01-30T03:40:38;5.70;58.80
51811;DHT22;52468;40.116;18.296;2024-01-30T03:43:06;5.60;58.90
51811;DHT22;52468;40.116;18.296;2024-01-30T03:45:34;5.60;59.10
51811;DHT22;52468;40.116;18.296;2024-01-30T03:48:01;5.50;59.20
51811;DHT22;52468;40.116;18.296;2024-01-30T03:50:29;5.50;59.20
51811;DHT22;52468;40.116;18.296;2024-01-30T03:52:57;5.60;58.80
51811;DHT22;52468;40.116;18.296;2024-01-30T03:55:25;5.70;58.40
51811;DHT22;52468;40.116;18.296;2024-01-30T03:57:53;5.80;57.90
51811;DHT22;52468;40.116;18.296;2024-01-30T04:00:21;5.90;56.90
51811;DHT22;52468;40.116;18.296;2024-01-30T04:02:49;5.90;56.50
51811;DHT22;52468;40.116;18.296;2024-01-30T04:05:18;6.00;55.70
51811;DHT22;52468;40.116;18.296;2024-01-30T04:07:46;6.10;55.30
51811;DHT22;52468;40.116;18.296;2024-01-30T04:10:14;6.10;55.00
51811;DHT22;52468;40.116;18.296;2024-01-30T04:12:42;6.10;54.70
51811;DHT22;52468;40.116;18.296;2024-01-30T04:15:10;6.10;54.40
51811;DHT22;52468;40.116;18.296;2024-01-30T04:17:38;6.20;54.30
51811;DHT22;52468;40.116;18.296;2024-01-30T04:20:06;6.20;54.10
51811;DHT22;52468;40.116;18.296;2024-01-30T04:22:34;6.10;54.10
51811;DHT22;52468;40.116;18.296;2024-01-30T04:25:02;6.10;54.20
51811;DHT22;52468;40.116;18.296;2024-01-30T04:27:30;6.00;54.10
51811;DHT22;52468;40.116;18.296;2024-01-30T04:29:58;5.90;54.30
51811;DHT22;52468;40.116;18.296;2024-01-30T04:32:26;5.80;54.80
51811;DHT22;52468;40.116;18.296;2024-01-30T04:34:54;5.70;55.10
51811;DHT22;52468;40.116;18.296;2024-01-30T04:37:22;5.60;55.40
51811;DHT22;52468;40.116;18.296;2024-01-30T04:39:50;5.50;55.90
51811;DHT22;52468;40.116;18.296;2024-01-30T04:42:17;5.30;56.20
51811;DHT22;52468;40.116;18.296;2024-01-30T04:44:45;5.10;57.40
51811;DHT22;52468;40.116;18.296;2024-01-30T04:47:13;5.00;58.10
51811;DHT22;52468;40.116;18.296;2024-01-30T04:49:42;5.10;58.10
51811;DHT22;52468;40.116;18.296;2024-01-30T04:52:10;5.10;57.90
51811;DHT22;52468;40.116;18.296;2024-01-30T04:54:38;5.20;58.10
51811;DHT22;52468;40.116;18.296;2024-01-30T04:57:06;5.30;57.80
51811;DHT22;52468;40.116;18.296;2024-01-30T04:59:37;5.50;57.40
51811;DHT22;52468;40.116;18.296;2024-01-30T05:02:04;5.80;56.40
51811;DHT22;52468;40.116;18.296;2024-01-30T05:04:32;6.20;54.80
51811;DHT22;52468;40.116;18.296;2024-01-30T05:07:00;6.40;53.50
51811;DHT22;52468;40.116;18.296;2024-01-30T05:09:28;6.60;52.50
51811;DHT22;52468;40.116;18.296;2024-01-30T05:11:56;6.80;51.60
51811;DHT22;52468;40.116;18.296;2024-01-30T05:14:24;6.90;51.10
51811;DHT22;52468;40.116;18.296;2024-01-30T05:16:52;6.90;50.80
51811;DHT22;52468;40.116;18.296;2024-01-30T05:19:20;6.90;50.70
51811;DHT22;52468;40.116;18.296;2024-01-30T05:21:50;6.80;50.70
51811;DHT22;52468;40.116;18.296;2024-01-30T05:24:18;6.70;50.90
51811;DHT22;52468;40.116;18.296;2024-01-30T05:26:47;6.70;50.90
51811;DHT22;52468;40.116;18.296;2024-01-30T05:29:15;6.60;50.90
51811;DHT22;52468;40.116;18.296;2024-01-30T05:31:43;6.60;51.00
51811;DHT22;52468;40.116;18.296;2024-01-30T05:34:11;6.50;51.10
51811;DHT22;52468;40.116;18.296;2024-01-30T05:36:39;6.50;51.10
51811;DHT22;52468;40.116;18.296;2024-01-30T05:39:07;6.50;51.20
51811;DHT22;52468;40.116;18.296;2024-01-30T05:41:35;6.40;51.20
51811;DHT22;52468;40.116;18.296;2024-01-30T05:44:03;6.40;50.90
51811;DHT22;52468;40.116;18.296;2024-01-30T05:46:31;6.40;50.70
51811;DHT22;52468;40.116;18.296;2024-01-30T05:48:59;6.40;50.50
51811;DHT22;52468;40.116;18.296;2024-01-30T05:51:27;6.30;50.30
51811;DHT22;52468;40.116;18.296;2024-01-30T05:53:55;6.30;50.20
51811;DHT22;52468;40.116;18.296;2024-01-30T05:56:23;6.20;50.40
51811;DHT22;52468;40.116;18.296;2024-01-30T05:58:51;6.10;50.50
51811;DHT22;52468;40.116;18.296;2024-01-30T06:01:19;6.10;50.70
51811;DHT22;52468;40.116;18.296;2024-01-30T06:03:47;6.20;50.80
51811;DHT22;52468;40.116;18.296;2024-01-30T06:06:15;6.40;50.50
51811;DHT22;52468;40.116;18.296;2024-01-30T06:08:43;6.50;50.30
51811;DHT22;52468;40.116;18.296;2024-01-30T06:11:11;6.70;50.00
51811;DHT22;52468;40.116;18.296;2024-01-30T06:13:41;6.90;49.80
51811;DHT22;52468;40.116;18.296;2024-01-30T06:16:10;7.00;49.50
51811;DHT22;52468;40.116;18.296;2024-01-30T06:18:39;7.10;49.40
51811;DHT22;52468;40.116;18.296;2024-01-30T06:21:07;7.00;49.40
51811;DHT22;52468;40.116;18.296;2024-01-30T06:23:36;7.10;49.40
51811;DHT22;52468;40.116;18.296;2024-01-30T06:26:04;7.20;49.30
51811;DHT22;52468;40.116;18.296;2024-01-30T06:28:32;7.20;49.10
51811;DHT22;52468;40.116;18.296;2024-01-30T06:31:01;7.30;48.80
51811;DHT22;52468;40.116;18.296;2024-01-30T06:33:29;7.30;48.60
51811;DHT22;52468;40.116;18.296;2024-01-30T06:35:57;7.40;48.30
51811;DHT22;52468;40.116;18.296;2024-01-30T06:38:25;7.60;48.10
51811;DHT22;52468;40.116;18.296;2024-01-30T06:40:52;7.60;47.60
51811;DHT22;52468;40.116;18.296;2024-01-30T06:43:21;7.70;47.40
51811;DHT22;52468;40.116;18.296;2024-01-30T06:45:49;8.00;47.10
51811;DHT22;52468;40.116;18.296;2024-01-30T06:48:19;8.00;47.00
51811;DHT22;52468;40.116;18.296;2024-01-30T06:50:47;8.10;46.50
51811;DHT22;52468;40.116;18.296;2024-01-30T06:53:16;8.30;46.20
51811;DHT22;52468;40.116;18.296;2024-01-30T06:55:44;8.40;45.90
51811;DHT22;52468;40.116;18.296;2024-01-30T06:58:12;8.60;45.60
51811;DHT22;52468;40.116;18.296;2024-01-30T07:00:40;8.70;45.30
51811;DHT22;52468;40.116;18.296;2024-01-30T07:03:08;8.90;45.20
51811;DHT22;52468;40.116;18.296;2024-01-30T07:05:36;9.00;45.20
51811;DHT22;52468;40.116;18.296;2024-01-30T07:08:04;9.10;44.60
51811;DHT22;52468;40.116;18.296;2024-01-30T07:10:32;9.20;44.40
51811;DHT22;52468;40.116;18.296;2024-01-30T07:13:00;9.30;44.00
51811;DHT22;52468;40.116;18.296;2024-01-30T07:15:28;9.30;43.90
51811;DHT22;52468;40.116;18.296;2024-01-30T07:17:56;9.50;43.90
51811;DHT22;52468;40.116;18.296;2024-01-30T07:20:24;9.60;43.80
51811;DHT22;52468;40.116;18.296;2024-01-30T07:22:52;9.70;43.70
51811;DHT22;52468;40.116;18.296;2024-01-30T07:25:20;9.80;43.60
51811;DHT22;52468;40.116;18.296;2024-01-30T07:27:49;9.90;43.40
51811;DHT22;52468;40.116;18.296;2024-01-30T07:30:17;10.00;43.20
51811;DHT22;52468;40.116;18.296;2024-01-30T07:32:46;10.10;42.80
51811;DHT22;52468;40.116;18.296;2024-01-30T07:35:14;10.10;42.50
51811;DHT22;52468;40.116;18.296;2024-01-30T07:37:42;10.20;42.40
51811;DHT22;52468;40.116;18.296;2024-01-30T07:40:10;10.20;42.10
51811;DHT22;52468;40.116;18.296;2024-01-30T07:42:38;10.30;42.10
51811;DHT22;52468;40.116;18.296;2024-01-30T07:45:06;10.40;42.30
51811;DHT22;52468;40.116;18.296;2024-01-30T07:47:34;10.50;42.20
51811;DHT22;52468;40.116;18.296;2024-01-30T07:50:02;10.50;42.20
51811;DHT22;52468;40.116;18.296;2024-01-30T07:52:30;10.50;42.00
51811;DHT22;52468;40.116;18.296;2024-01-30T07:54:58;10.50;42.10
51811;DHT22;52468;40.116;18.296;2024-01-30T07:57:26;10.60;42.10
51811;DHT22;52468;40.116;18.296;2024-01-30T07:59:54;10.70;41.60
51811;DHT22;52468;40.116;18.296;2024-01-30T08:02:21;10.80;41.50
51811;DHT22;52468;40.116;18.296;2024-01-30T08:04:49;10.90;41.30
51811;DHT22;52468;40.116;18.296;2024-01-30T08:07:17;11.00;40.80
51811;DHT22;52468;40.116;18.296;2024-01-30T08:09:45;11.00;40.80
51811;DHT22;52468;40.116;18.296;2024-01-30T08:12:13;11.00;40.70
51811;DHT22;52468;40.116;18.296;2024-01-30T08:14:41;11.10;40.80
51811;DHT22;52468;40.116;18.296;2024-01-30T08:17:09;11.20;40.50
51811;DHT22;52468;40.116;18.296;2024-01-30T08:19:37;11.10;39.70
51811;DHT22;52468;40.116;18.296;2024-01-30T08:22:04;11.20;40.00
51811;DHT22;52468;40.116;18.296;2024-01-30T08:24:32;11.20;39.70
51811;DHT22;52468;40.116;18.296;2024-01-30T08:27:00;11.30;39.70
51811;DHT22;52468;40.116;18.296;2024-01-30T08:29:30;11.40;39.60
51811;DHT22;52468;40.116;18.296;2024-01-30T08:31:57;11.20;39.60
51811;DHT22;52468;40.116;18.296;2024-01-30T08:34:26;11.30;39.80
51811;DHT22;52468;40.116;18.296;2024-01-30T08:36:54;11.40;39.60
51811;DHT22;52468;40.116;18.296;2024-01-30T08:39:22;11.50;39.60
51811;DHT22;52468;40.116;18.296;2024-01-30T08:41:51;11.60;39.10
51811;DHT22;52468;40.116;18.296;2024-01-30T08:44:19;11.50;37.50
51811;DHT22;52468;40.116;18.296;2024-01-30T08:46:47;11.50;37.00
51811;DHT22;52468;40.116;18.296;2024-01-30T08:49:16;11.30;37.60
51811;DHT22;52468;40.116;18.296;2024-01-30T08:51:44;11.40;38.10
51811;DHT22;52468;40.116;18.296;2024-01-30T08:54:12;11.40;38.40
51811;DHT22;52468;40.116;18.296;2024-01-30T08:56:40;11.40;39.00
51811;DHT22;52468;40.116;18.296;2024-01-30T08:59:07;11.60;39.20
51811;DHT22;52468;40.116;18.296;2024-01-30T09:01:37;11.50;39.20
51811;DHT22;52468;40.116;18.296;2024-01-30T09:04:05;11.50;39.40
51811;DHT22;52468;40.116;18.296;2024-01-30T09:06:33;11.60;38.40
51811;DHT22;52468;40.116;18.296;2024-01-30T09:09:00;11.80;37.60
51811;DHT22;52468;40.116;18.296;2024-01-30T09:11:28;11.80;36.60
51811;DHT22;52468;40.116;18.296;2024-01-30T09:13:56;11.70;35.80
51811;DHT22;52468;40.116;18.296;2024-01-30T09:16:24;11.60;35.70
51811;DHT22;52468;40.116;18.296;2024-01-30T09:18:52;11.70;36.20
51811;DHT22;52468;40.116;18.296;2024-01-30T09:21:20;11.70;37.40
51811;DHT22;52468;40.116;18.296;2024-01-30T09:23:48;11.70;38.00
51811;DHT22;52468;40.116;18.296;2024-01-30T09:26:15;11.70;38.70
51811;DHT22;52468;40.116;18.296;2024-01-30T09:28:44;11.80;39.10
51811;DHT22;52468;40.116;18.296;2024-01-30T09:31:12;11.60;39.40
51811;DHT22;52468;40.116;18.296;2024-01-30T09:33:40;11.70;40.30
51811;DHT22;52468;40.116;18.296;2024-01-30T09:36:08;11.90;39.70
51811;DHT22;52468;40.116;18.296;2024-01-30T09:38:36;11.80;38.30
51811;DHT22;52468;40.116;18.296;2024-01-30T09:41:09;11.90;38.00
51811;DHT22;52468;40.116;18.296;2024-01-30T09:43:38;11.90;37.20
51811;DHT22;52468;40.116;18.296;2024-01-30T09:46:10;11.80;36.50
51811;DHT22;52468;40.116;18.296;2024-01-30T09:48:41;11.70;36.40
51811;DHT22;52468;40.116;18.296;2024-01-30T09:51:11;11.60;35.90
51811;DHT22;52468;40.116;18.296;2024-01-30T09:53:41;11.60;35.50
51811;DHT22;52468;40.116;18.296;2024-01-30T09:56:09;11.60;34.40
51811;DHT22;52468;40.116;18.296;2024-01-30T09:58:38;11.70;34.20
51811;DHT22;52468;40.116;18.296;2024-01-30T10:01:07;11.80;34.20
51811;DHT22;52468;40.116;18.296;2024-01-30T10:03:35;11.80;32.60
51811;DHT22;52468;40.116;18.296;2024-01-30T10:06:03;11.80;32.90
51811;DHT22;52468;40.116;18.296;2024-01-30T10:08:31;12.00;33.30
51811;DHT22;52468;40.116;18.296;2024-01-30T10:10:59;11.90;32.80
51811;DHT22;52468;40.116;18.296;2024-01-30T10:13:27;12.00;33.70
51811;DHT22;52468;40.116;18.296;2024-01-30T10:15:55;12.00;35.20
51811;DHT22;52468;40.116;18.296;2024-01-30T10:18:24;12.10;35.20
51811;DHT22;52468;40.116;18.296;2024-01-30T10:20:52;12.10;36.00
51811;DHT22;52468;40.116;18.296;2024-01-30T10:23:20;12.30;36.70
51811;DHT22;52468;40.116;18.296;2024-01-30T10:25:48;12.40;37.40
51811;DHT22;52468;40.116;18.296;2024-01-30T10:28:15;12.50;37.80
51811;DHT22;52468;40.116;18.296;2024-01-30T10:30:43;12.40;37.00
51811;DHT22;52468;40.116;18.296;2024-01-30T10:33:11;12.50;36.50
51811;DHT22;52468;40.116;18.296;2024-01-30T10:35:39;12.40;34.10
51811;DHT22;52468;40.116;18.296;2024-01-30T10:38:10;12.40;34.00
51811;DHT22;52468;40.116;18.296;2024-01-30T10:40:41;12.50;33.30
51811;DHT22;52468;40.116;18.296;2024-01-30T10:43:11;12.40;33.00
51811;DHT22;52468;40.116;18.296;2024-01-30T10:45:44;12.30;33.40
51811;DHT22;52468;40.116;18.296;2024-01-30T10:48:16;12.40;31.70
51811;DHT22;52468;40.116;18.296;2024-01-30T10:50:48;12.50;31.70
51811;DHT22;52468;40.116;18.296;2024-01-30T10:53:18;12.50;32.50
51811;DHT22;52468;40.116;18.296;2024-01-30T10:55:47;12.60;32.80
51811;DHT22;52468;40.116;18.296;2024-01-30T10:58:16;12.60;33.70
51811;DHT22;52468;40.116;18.296;2024-01-30T11:00:45;12.50;33.70
51811;DHT22;52468;40.116;18.296;2024-01-30T11:03:13;12.60;34.10
51811;DHT22;52468;40.116;18.296;2024-01-30T11:05:41;12.70;33.20
51811;DHT22;52468;40.116;18.296;2024-01-30T11:08:13;12.60;33.80
51811;DHT22;52468;40.116;18.296;2024-01-30T11:10:48;12.50;34.40
51811;DHT22;52468;40.116;18.296;2024-01-30T11:13:18;12.40;34.50
51811;DHT22;52468;40.116;18.296;2024-01-30T11:15:48;12.40;34.80
51811;DHT22;52468;40.116;18.296;2024-01-30T11:18:25;12.40;34.60
51811;DHT22;52468;40.116;18.296;2024-01-30T11:20:56;12.50;34.80
51811;DHT22;52468;40.116;18.296;2024-01-30T11:23:26;12.60;35.00
51811;DHT22;52468;40.116;18.296;2024-01-30T11:25:55;12.50;35.90
51811;DHT22;52468;40.116;18.296;2024-01-30T11:28:23;12.60;35.90
51811;DHT22;52468;40.116;18.296;2024-01-30T11:30:51;12.60;35.80
51811;DHT22;52468;40.116;18.296;2024-01-30T11:33:30;12.70;35.30
51811;DHT22;52468;40.116;18.296;2024-01-30T11:36:00;12.80;34.00
51811;DHT22;52468;40.116;18.296;2024-01-30T11:38:28;12.90;34.20
51811;DHT22;52468;40.116;18.296;2024-01-30T11:40:56;12.90;33.50
51811;DHT22;52468;40.116;18.296;2024-01-30T11:43:24;13.00;33.40
51811;DHT22;52468;40.116;18.296;2024-01-30T11:45:52;12.80;33.30
51811;DHT22;52468;40.116;18.296;2024-01-30T11:48:20;12.90;33.30
51811;DHT22;52468;40.116;18.296;2024-01-30T11:50:48;13.10;33.30
51811;DHT22;52468;40.116;18.296;2024-01-30T11:53:18;12.80;33.20
51811;DHT22;52468;40.116;18.296;2024-01-30T11:55:52;12.90;33.80
51811;DHT22;52468;40.116;18.296;2024-01-30T11:58:25;12.90;33.90
51811;DHT22;52468;40.116;18.296;2024-01-30T12:00:56;13.00;33.80
51811;DHT22;52468;40.116;18.296;2024-01-30T12:03:25;12.80;33.70
51811;DHT22;52468;40.116;18.296;2024-01-30T12:05:59;12.80;33.30
51811;DHT22;52468;40.116;18.296;2024-01-30T12:08:27;12.80;33.40
51811;DHT22;52468;40.116;18.296;2024-01-30T12:10:56;12.80;33.40
51811;DHT22;52468;40.116;18.296;2024-01-30T12:13:26;12.90;33.10
51811;DHT22;52468;40.116;18.296;2024-01-30T12:15:55;13.00;32.80
51811;DHT22;52468;40.116;18.296;2024-01-30T12:18:23;13.10;33.00
51811;DHT22;52468;40.116;18.296;2024-01-30T12:20:58;13.10;32.80
51811;DHT22;52468;40.116;18.296;2024-01-30T12:23:27;13.00;32.50
51811;DHT22;52468;40.116;18.296;2024-01-30T12:25:56;12.80;31.90
51811;DHT22;52468;40.116;18.296;2024-01-30T12:28:24;12.90;30.80
51811;DHT22;52468;40.116;18.296;2024-01-30T12:30:56;13.00;31.50
51811;DHT22;52468;40.116;18.296;2024-01-30T12:33:26;13.10;31.20
51811;DHT22;52468;40.116;18.296;2024-01-30T12:35:56;13.00;31.80
51811;DHT22;52468;40.116;18.296;2024-01-30T12:38:24;13.00;32.40
51811;DHT22;52468;40.116;18.296;2024-01-30T12:40:55;13.00;32.40
51811;DHT22;52468;40.116;18.296;2024-01-30T12:43:25;13.00;32.00
51811;DHT22;52468;40.116;18.296;2024-01-30T12:45:53;12.90;31.60
51811;DHT22;52468;40.116;18.296;2024-01-30T12:48:21;12.80;32.00
51811;DHT22;52468;40.116;18.296;2024-01-30T12:50:49;12.60;32.20
51811;DHT22;52468;40.116;18.296;2024-01-30T12:53:17;12.80;32.20
51811;DHT22;52468;40.116;18.296;2024-01-30T12:55:45;12.80;32.90
51811;DHT22;52468;40.116;18.296;2024-01-30T12:58:13;13.00;32.30
51811;DHT22;52468;40.116;18.296;2024-01-30T13:00:41;13.00;33.30
51811;DHT22;52468;40.116;18.296;2024-01-30T13:03:10;12.90;33.90
51811;DHT22;52468;40.116;18.296;2024-01-30T13:05:38;12.80;33.60
51811;DHT22;52468;40.116;18.296;2024-01-30T13:08:06;12.80;33.70
51811;DHT22;52468;40.116;18.296;2024-01-30T13:10:34;12.80;33.00
51811;DHT22;52468;40.116;18.296;2024-01-30T13:13:02;12.70;33.70
51811;DHT22;52468;40.116;18.296;2024-01-30T13:15:30;12.80;34.20
51811;DHT22;52468;40.116;18.296;2024-01-30T13:17:58;12.60;33.80
51811;DHT22;52468;40.116;18.296;2024-01-30T13:20:25;12.60;34.20
51811;DHT22;52468;40.116;18.296;2024-01-30T13:22:53;12.60;34.70
51811;DHT22;52468;40.116;18.296;2024-01-30T13:25:21;12.50;34.80
51811;DHT22;52468;40.116;18.296;2024-01-30T13:27:49;12.60;35.10
51811;DHT22;52468;40.116;18.296;2024-01-30T13:30:17;12.40;35.40
51811;DHT22;52468;40.116;18.296;2024-01-30T13:32:46;12.50;35.70
51811;DHT22;52468;40.116;18.296;2024-01-30T13:35:14;12.50;35.70
51811;DHT22;52468;40.116;18.296;2024-01-30T13:37:42;12.30;36.20
51811;DHT22;52468;40.116;18.296;2024-01-30T13:40:10;12.40;36.70
51811;DHT22;52468;40.116;18.296;2024-01-30T13:42:39;12.40;36.90
51811;DHT22;52468;40.116;18.296;2024-01-30T13:45:07;12.50;37.20
51811;DHT22;52468;40.116;18.296;2024-01-30T13:47:37;12.50;37.40
51811;DHT22;52468;40.116;18.296;2024-01-30T13:50:05;12.50;38.00
51811;DHT22;52468;40.116;18.296;2024-01-30T13:52:33;12.40;38.20
51811;DHT22;52468;40.116;18.296;2024-01-30T13:55:02;12.40;38.30
51811;DHT22;52468;40.116;18.296;2024-01-30T13:57:30;12.40;38.10
51811;DHT22;52468;40.116;18.296;2024-01-30T14:00:03;12.50;37.60
51811;DHT22;52468;40.116;18.296;2024-01-30T14:02:39;12.50;37.70
51811;DHT22;52468;40.116;18.296;2024-01-30T14:05:07;12.40;38.40
51811;DHT22;52468;40.116;18.296;2024-01-30T14:07:36;12.40;38.40
51811;DHT22;52468;40.116;18.296;2024-01-30T14:10:05;12.30;38.50
51811;DHT22;52468;40.116;18.296;2024-01-30T14:12:35;12.30;38.80
51811;DHT22;52468;40.116;18.296;2024-01-30T14:15:03;12.20;39.40
51811;DHT22;52468;40.116;18.296;2024-01-30T14:17:36;12.20;40.10
51811;DHT22;52468;40.116;18.296;2024-01-30T14:20:05;12.20;40.70
51811;DHT22;52468;40.116;18.296;2024-01-30T14:22:34;12.10;41.30
51811;DHT22;52468;40.116;18.296;2024-01-30T14:25:02;12.20;41.80
51811;DHT22;52468;40.116;18.296;2024-01-30T14:27:31;12.10;42.10
51811;DHT22;52468;40.116;18.296;2024-01-30T14:29:59;12.10;41.80
51811;DHT22;52468;40.116;18.296;2024-01-30T14:32:27;12.00;40.80
51811;DHT22;52468;40.116;18.296;2024-01-30T14:34:55;12.00;39.90
51811;DHT22;52468;40.116;18.296;2024-01-30T14:37:23;12.00;39.30
51811;DHT22;52468;40.116;18.296;2024-01-30T14:39:51;11.80;39.70
51811;DHT22;52468;40.116;18.296;2024-01-30T14:42:19;11.80;40.30
51811;DHT22;52468;40.116;18.296;2024-01-30T14:44:47;11.80;40.80
51811;DHT22;52468;40.116;18.296;2024-01-30T14:47:17;11.80;40.70
51811;DHT22;52468;40.116;18.296;2024-01-30T14:49:44;11.80;40.80
51811;DHT22;52468;40.116;18.296;2024-01-30T14:52:12;11.80;41.20
51811;DHT22;52468;40.116;18.296;2024-01-30T14:54:41;11.70;42.10
51811;DHT22;52468;40.116;18.296;2024-01-30T14:57:10;11.60;43.50
51811;DHT22;52468;40.116;18.296;2024-01-30T14:59:38;11.50;44.40
51811;DHT22;52468;40.116;18.296;2024-01-30T15:02:06;11.50;44.50
51811;DHT22;52468;40.116;18.296;2024-01-30T15:04:34;11.50;44.40
51811;DHT22;52468;40.116;18.296;2024-01-30T15:07:02;11.30;44.40
51811;DHT22;52468;40.116;18.296;2024-01-30T15:09:30;11.30;44.60
51811;DHT22;52468;40.116;18.296;2024-01-30T15:11:58;11.10;44.80
51811;DHT22;52468;40.116;18.296;2024-01-30T15:14:26;11.10;45.00
51811;DHT22;52468;40.116;18.296;2024-01-30T15:16:54;11.00;45.20
51811;DHT22;52468;40.116;18.296;2024-01-30T15:19:22;11.00;45.60
51811;DHT22;52468;40.116;18.296;2024-01-30T15:21:50;11.00;46.40
51811;DHT22;52468;40.116;18.296;2024-01-30T15:24:18;10.80;47.30
51811;DHT22;52468;40.116;18.296;2024-01-30T15:26:48;10.90;47.50
51811;DHT22;52468;40.116;18.296;2024-01-30T15:29:15;10.80;48.10